createdAt,value
2022-09-03T00:01:28.755Z,98091.38
2022-09-03T00:04:30.065Z,98092.75
2022-09-03T00:07:28.161Z,98095.91
2022-09-03T00:10:27.776Z,98091.91
2022-09-03T00:13:24.249Z,98087.94
2022-09-03T00:16:21.598Z,98089.28
2022-09-03T00:19:12.423Z,98088.97
2022-09-03T00:22:17.298Z,98087.81
2022-09-03T00:25:14.566Z,98086.50
2022-09-03T00:28:13.565Z,98090.53
2022-09-03T00:31:18.294Z,98087.53
2022-09-03T00:34:18.213Z,98079.22
2022-09-03T00:37:15.298Z,98084.88
2022-09-03T00:40:16.982Z,98083.56
2022-09-03T00:43:19.690Z,98082.41
2022-09-03T00:46:24.999Z,98077.59
2022-09-03T00:49:36.369Z,98085.25
2022-09-03T00:52:45.864Z,98091.75
2022-09-03T00:55:51.061Z,98088.78
2022-09-03T00:59:05.938Z,98091.94
2022-09-03T01:02:13.380Z,98086.28
2022-09-03T01:05:12.032Z,98092.94
2022-09-03T01:08:32.160Z,98084.44
2022-09-03T01:11:35.172Z,98084.94
2022-09-03T01:14:44.209Z,98087.28
2022-09-03T01:17:55.695Z,98091.28
2022-09-03T01:21:06.936Z,98099.59
2022-09-03T01:24:47.252Z,98095.91
2022-09-03T01:27:52.749Z,98091.91
2022-09-03T01:30:49.263Z,98096.75
2022-09-03T01:33:48.833Z,98097.25
2022-09-03T01:36:52.770Z,98100.88
2022-09-03T01:40:02.123Z,98100.72
2022-09-03T01:43:10.563Z,98091.59
2022-09-03T01:46:07.821Z,98093.56
2022-09-03T01:49:12.863Z,98095.72
2022-09-03T01:52:07.422Z,98097.88
2022-09-03T01:55:13.275Z,98102.69
2022-09-03T01:58:12.378Z,98096.53
2022-09-03T02:01:08.751Z,98108.50
2022-09-03T02:04:00.611Z,98110.66
2022-09-03T02:06:53.030Z,98110.66
2022-09-03T02:09:43.470Z,98108.50
2022-09-03T02:12:38.065Z,98107.13
2022-09-03T02:15:31.316Z,98102.97
2022-09-03T02:18:25.612Z,98106.97
2022-09-03T02:21:20.088Z,98102.81
2022-09-03T02:24:10.357Z,98104.09
2022-09-03T02:27:00.996Z,98102.59
2022-09-03T02:29:50.776Z,98099.44
2022-09-03T02:32:39.974Z,98104.09
2022-09-03T02:35:30.013Z,98102.75
2022-09-03T02:38:22.437Z,98103.88
2022-09-03T02:41:15.105Z,98105.91
2022-09-03T02:44:13.963Z,98097.25
2022-09-03T02:47:06.978Z,98103.72
2022-09-03T02:49:56.091Z,98104.84
2022-09-03T02:52:45.254Z,98098.72
2022-09-03T02:55:34.654Z,98096.38
2022-09-03T02:58:23.923Z,98094.03
2022-09-03T03:01:19.651Z,98093.19
2022-09-03T03:04:13.385Z,98094.38
2022-09-03T03:07:02.631Z,98090.03
2022-09-03T03:09:51.988Z,98088.38
2022-09-03T03:12:41.175Z,98080.56
2022-09-03T03:15:30.325Z,98078.91
2022-09-03T03:18:20.856Z,98090.22
2022-09-03T03:21:12.947Z,98094.38
2022-09-03T03:24:05.162Z,98105.50
2022-09-03T03:26:59.279Z,98100.38
2022-09-03T03:29:48.455Z,98103.41
2022-09-03T03:32:38.201Z,98102.22
2022-09-03T03:35:28.850Z,98095.75
2022-09-03T03:38:18.215Z,98091.81
2022-09-03T03:41:12.320Z,98094.78
2022-09-03T03:44:04.016Z,98096.97
2022-09-03T03:46:53.483Z,98091.84
2022-09-03T03:49:42.581Z,98082.72
2022-09-03T03:52:33.169Z,98087.50
2022-09-03T03:55:22.850Z,98085.69
2022-09-03T03:58:16.199Z,98087.19
2022-09-03T04:01:09.059Z,98094.16
2022-09-03T04:04:00.614Z,98095.16
2022-09-03T04:06:49.882Z,98082.03
2022-09-03T04:09:40.497Z,98088.50
2022-09-03T04:12:29.619Z,98080.19
2022-09-03T04:15:18.900Z,98075.03
2022-09-03T04:18:08.478Z,98075.72
2022-09-03T04:21:04.171Z,98083.69
2022-09-03T04:23:55.172Z,98077.34
2022-09-03T04:26:47.716Z,98086.66
2022-09-03T04:29:36.914Z,98081.34
2022-09-03T04:32:44.418Z,98086.13
2022-09-03T04:35:34.177Z,98082.84
2022-09-03T04:38:26.545Z,98096.59
2022-09-03T04:41:18.103Z,98102.41
2022-09-03T04:44:08.761Z,98101.06
2022-09-03T04:46:57.975Z,98086.94
2022-09-03T04:49:47.174Z,98088.91
2022-09-03T04:52:36.462Z,98093.41
2022-09-03T04:55:25.832Z,98094.22
2022-09-03T04:58:15.015Z,98090.91
2022-09-03T05:01:11.274Z,98099.38
2022-09-03T05:04:02.301Z,98102.03
2022-09-03T05:06:51.492Z,98104.53
2022-09-03T05:09:40.637Z,98106.72
2022-09-03T05:12:31.751Z,98116.06
2022-09-03T05:15:20.844Z,98111.06
2022-09-03T05:18:11.341Z,98111.06
2022-09-03T05:21:01.760Z,98114.09
2022-09-03T05:23:52.908Z,98113.75
2022-09-03T05:26:42.200Z,98116.75
2022-09-03T05:29:31.322Z,98113.81
2022-09-03T05:32:20.527Z,98112.81
2022-09-03T05:35:11.945Z,98117.31
2022-09-03T05:38:01.741Z,98111.34
2022-09-03T05:40:50.905Z,98118.00
2022-09-03T05:43:43.033Z,98113.34
2022-09-03T05:46:37.725Z,98119.88
2022-09-03T05:49:26.925Z,98125.53
2022-09-03T05:52:19.235Z,98123.53
2022-09-03T05:55:12.864Z,98122.41
2022-09-03T05:58:02.711Z,98123.91
2022-09-03T06:00:51.923Z,98127.72
2022-09-03T06:03:41.852Z,98122.53
2022-09-03T06:06:33.716Z,98117.88
2022-09-03T06:09:24.496Z,98126.53
2022-09-03T06:12:13.638Z,98116.69
2022-09-03T06:15:02.962Z,98123.47
2022-09-03T06:17:52.174Z,98123.44
2022-09-03T06:20:41.415Z,98134.56
2022-09-03T06:23:32.122Z,98135.69
2022-09-03T06:26:22.891Z,98143.63
2022-09-03T06:29:12.514Z,98128.56
2022-09-03T06:32:02.206Z,98132.81
2022-09-03T06:34:51.442Z,98127.38
2022-09-03T06:37:41.167Z,98126.66
2022-09-03T06:40:30.747Z,98130.19
2022-09-03T06:43:21.433Z,98118.91
2022-09-03T06:46:13.506Z,98131.03
2022-09-03T06:49:02.914Z,98129.56
2022-09-03T06:51:52.333Z,98125.81
2022-09-03T06:54:41.595Z,98134.03
2022-09-03T06:57:30.736Z,98123.53
2022-09-03T07:00:21.789Z,98105.50
2022-09-03T07:03:10.867Z,98103.50
2022-09-03T07:06:02.662Z,98100.81
2022-09-03T07:08:51.901Z,98094.69
2022-09-03T07:11:47.137Z,98108.84
2022-09-03T07:14:36.490Z,98108.03
2022-09-03T07:17:27.004Z,98099.03
2022-09-03T07:20:16.327Z,98096.16
2022-09-03T07:23:05.598Z,98085.63
2022-09-03T07:25:56.979Z,98086.19
2022-09-03T07:28:47.470Z,98090.78
2022-09-03T07:31:41.244Z,98087.19
2022-09-03T07:34:31.906Z,98099.03
2022-09-03T07:37:21.289Z,98101.16
2022-09-03T07:40:11.613Z,98104.75
2022-09-03T07:43:03.460Z,98108.53
2022-09-03T07:45:52.826Z,98100.97
2022-09-03T07:48:42.293Z,98093.75
2022-09-03T07:51:37.346Z,98097.91
2022-09-03T07:54:27.420Z,98094.00
2022-09-03T07:57:16.808Z,98092.59
2022-09-03T08:00:07.862Z,98097.78
2022-09-03T08:02:58.082Z,98098.84
2022-09-03T08:05:47.608Z,98093.03
2022-09-03T08:08:39.616Z,98088.50
2022-09-03T08:11:31.353Z,98081.03
2022-09-03T08:14:20.642Z,98086.19
2022-09-03T08:17:09.819Z,98084.47
2022-09-03T08:19:59.131Z,98089.16
2022-09-03T08:22:48.425Z,98086.16
2022-09-03T08:25:38.937Z,98078.25
2022-09-03T08:28:28.218Z,98083.97
2022-09-03T08:31:20.128Z,98082.06
2022-09-03T08:34:11.763Z,98084.38
2022-09-03T08:37:02.324Z,98081.50
2022-09-03T08:39:51.483Z,98073.72
2022-09-03T08:43:06.920Z,98083.00
2022-09-03T08:45:56.549Z,98090.66
2022-09-03T08:48:48.626Z,98094.78
2022-09-03T08:51:40.429Z,98088.56
2022-09-03T08:54:33.517Z,98089.09
2022-09-03T08:57:23.369Z,98091.47
2022-09-03T09:00:15.809Z,98082.00
2022-09-03T09:03:31.092Z,98074.34
2022-09-03T09:06:31.165Z,98075.16
2022-09-03T09:09:32.931Z,98056.97
2022-09-03T09:12:44.236Z,98044.13
2022-09-03T09:15:51.693Z,98050.50
2022-09-03T09:19:04.856Z,98034.81
2022-09-03T09:22:00.229Z,98036.47
2022-09-03T09:24:54.349Z,98034.75
2022-09-03T09:27:53.499Z,98028.88
2022-09-03T09:30:47.729Z,98033.84
2022-09-03T09:33:37.615Z,98025.34
2022-09-03T09:36:28.132Z,98017.88
2022-09-03T09:39:17.604Z,98015.91
2022-09-03T09:42:09.575Z,98021.84
2022-09-03T09:44:58.995Z,98013.72
2022-09-03T09:47:50.293Z,98017.16
2022-09-03T09:50:39.481Z,98023.47
2022-09-03T09:53:30.186Z,98018.78
2022-09-03T09:56:25.354Z,98015.81
2022-09-03T09:59:16.112Z,98015.44
2022-09-03T10:02:17.080Z,98009.69
2022-09-03T10:05:22.326Z,98014.06
2022-09-03T10:08:22.600Z,98020.66
2022-09-03T10:11:12.911Z,98020.94
2022-09-03T10:14:04.386Z,98013.63
2022-09-03T10:17:05.364Z,98019.47
2022-09-03T10:20:31.171Z,98003.69
2022-09-03T10:23:28.129Z,98002.97
2022-09-03T10:26:32.100Z,97999.78
2022-09-03T10:29:25.943Z,97995.66
2022-09-03T10:32:39.359Z,97998.66
2022-09-03T10:35:33.666Z,97986.66
2022-09-03T10:38:34.158Z,97990.84
2022-09-03T10:41:47.450Z,97987.59
2022-09-03T10:45:02.205Z,97984.19
2022-09-03T10:48:32.755Z,97979.00
2022-09-03T10:51:28.866Z,97970.31
2022-09-03T10:54:41.479Z,97975.78
2022-09-03T10:57:50.130Z,97967.06
2022-09-03T11:00:53.548Z,97968.19
2022-09-03T11:03:49.360Z,97966.34
2022-09-03T11:06:48.428Z,97961.72
2022-09-03T11:09:45.214Z,97979.28
2022-09-03T11:12:43.447Z,97975.25
2022-09-03T11:15:38.936Z,97975.28
2022-09-03T11:18:35.535Z,97981.91
2022-09-03T11:21:30.010Z,97966.91
2022-09-03T11:24:25.176Z,97963.81
2022-09-03T11:27:33.165Z,97964.31
2022-09-03T11:30:30.174Z,97945.28
2022-09-03T11:33:25.603Z,97942.06
2022-09-03T11:36:21.865Z,97948.63
2022-09-03T11:39:25.160Z,97947.81
2022-09-03T11:42:35.220Z,97954.66
2022-09-03T11:45:37.637Z,97948.34
2022-09-03T11:48:39.889Z,97939.00
2022-09-03T11:51:38.107Z,97946.72
2022-09-03T11:54:28.515Z,97936.06
2022-09-03T11:57:29.228Z,97927.34
2022-09-03T12:00:24.888Z,97936.16
2022-09-03T12:03:18.783Z,97929.41
2022-09-03T12:06:41.471Z,97922.00
2022-09-03T12:10:09.787Z,97932.78
2022-09-03T12:13:21.567Z,97921.50
2022-09-03T12:16:48.964Z,97915.16
2022-09-03T12:19:53.497Z,97914.50
2022-09-03T12:22:44.819Z,97900.28
2022-09-03T12:25:34.397Z,97904.06
2022-09-03T12:28:26.127Z,97908.25
2022-09-03T12:31:22.890Z,97905.88
2022-09-03T12:34:17.789Z,97899.84
2022-09-03T12:40:33.821Z,97905.72
2022-09-03T12:43:49.913Z,97901.94
2022-09-03T12:46:40.086Z,97899.66
2022-09-03T12:49:37.778Z,97907.03
2022-09-03T12:52:32.920Z,97909.38
2022-09-03T12:55:40.433Z,97903.97
2022-09-03T12:58:39.269Z,97917.81
2022-09-03T13:01:34.937Z,97919.41
2022-09-03T13:04:29.022Z,97904.91
2022-09-03T13:07:34.285Z,97910.34
2022-09-03T13:10:29.880Z,97914.75
2022-09-03T13:13:25.773Z,97906.53
2022-09-03T13:17:11.187Z,97917.22
2022-09-03T13:20:24.184Z,97918.00
2022-09-03T13:24:04.586Z,97906.84
2022-09-03T13:27:12.245Z,97919.16
2022-09-03T13:30:11.115Z,97917.47
2022-09-03T13:33:10.602Z,97914.78
2022-09-03T13:36:09.765Z,97923.50
2022-09-03T13:39:06.226Z,97913.41
2022-09-03T13:42:06.158Z,97913.69
2022-09-03T13:45:06.710Z,97913.13
2022-09-03T13:48:23.074Z,97912.59
2022-09-03T13:51:23.586Z,97918.06
2022-09-03T13:54:42.443Z,97909.84
2022-09-03T13:57:40.821Z,97902.47
2022-09-03T14:00:38.486Z,97914.69
2022-09-03T14:03:39.118Z,97906.53
2022-09-03T14:06:45.031Z,97900.50
2022-09-03T14:09:48.946Z,97899.91
2022-09-03T14:12:46.935Z,97902.88
2022-09-03T14:15:46.981Z,97904.78
2022-09-03T14:18:49.994Z,97906.16
2022-09-03T14:21:48.779Z,97909.34
2022-09-03T14:24:50.278Z,97914.16
2022-09-03T14:27:39.679Z,97914.44
2022-09-03T14:30:46.184Z,97908.94
2022-09-03T14:33:47.493Z,97914.47
2022-09-03T14:36:46.199Z,97914.16
2022-09-03T14:39:54.079Z,97918.69
2022-09-03T14:43:16.322Z,97908.38
2022-09-03T14:46:24.351Z,97906.63
2022-09-03T14:49:46.618Z,97899.44
2022-09-03T14:52:59.451Z,97893.88
2022-09-03T14:56:21.683Z,97885.50
2022-09-03T14:59:41.787Z,97888.00
2022-09-03T15:03:15.299Z,97894.25
2022-09-03T15:06:31.069Z,97899.00
2022-09-03T15:09:33.418Z,97896.53
2022-09-03T15:12:34.382Z,97896.22
2022-09-03T15:15:32.049Z,97901.56
2022-09-03T15:18:33.346Z,97903.97
2022-09-03T15:21:33.521Z,97911.63
2022-09-03T15:24:39.081Z,97912.50
2022-09-03T15:27:55.951Z,97908.81
2022-09-03T15:30:57.544Z,97913.41
2022-09-03T15:33:58.607Z,97923.25
2022-09-03T15:36:55.841Z,97920.94
2022-09-03T15:39:54.502Z,97923.28
2022-09-03T15:42:49.040Z,97928.03
2022-09-03T15:45:52.115Z,97931.00
2022-09-03T15:48:51.764Z,97925.34
2022-09-03T15:51:59.760Z,97929.00
2022-09-03T15:55:03.898Z,97926.69
2022-09-03T15:58:08.591Z,97931.81
2022-09-03T16:01:03.573Z,97942.56
2022-09-03T16:04:10.911Z,97945.63
2022-09-03T16:07:10.412Z,97960.94
2022-09-03T16:10:28.226Z,97968.09
2022-09-03T16:13:40.190Z,97988.16
2022-09-03T16:16:44.096Z,97995.97
2022-09-03T16:19:46.321Z,98002.47
2022-09-03T16:22:48.199Z,98000.19
2022-09-03T16:25:51.435Z,98009.97
2022-09-03T16:28:53.644Z,98016.59
2022-09-03T16:32:18.748Z,98011.28
2022-09-03T16:35:32.507Z,98015.75
2022-09-03T16:38:39.492Z,98015.88
2022-09-03T16:41:41.221Z,98018.25
2022-09-03T16:44:50.614Z,98023.53
2022-09-03T16:47:59.211Z,98024.41
2022-09-03T16:51:09.857Z,98022.47
2022-09-03T16:54:17.094Z,98020.78
2022-09-03T16:57:25.410Z,98017.19
2022-09-03T17:00:21.023Z,98017.75
2022-09-03T17:03:48.846Z,98016.84
2022-09-03T17:07:05.816Z,98017.66
2022-09-03T17:10:09.093Z,98012.84
2022-09-03T17:13:30.940Z,98011.63
2022-09-03T17:16:39.392Z,98018.06
2022-09-03T17:19:45.103Z,98025.72
2022-09-03T17:22:54.414Z,98018.53
2022-09-03T17:26:02.116Z,98024.88
2022-09-03T17:29:10.889Z,98041.91
2022-09-03T17:32:21.139Z,98048.38
2022-09-03T17:35:18.905Z,98048.56
2022-09-03T17:38:30.315Z,98047.72
2022-09-03T17:41:33.609Z,98051.44
2022-09-03T17:44:47.843Z,98056.41
2022-09-03T17:48:05.520Z,98054.75
2022-09-03T17:51:02.937Z,98060.13
2022-09-03T17:54:01.670Z,98056.63
2022-09-03T17:57:03.102Z,98059.75
2022-09-03T17:59:58.939Z,98064.72
2022-09-03T18:02:57.800Z,98061.81
2022-09-03T18:05:54.767Z,98065.19
2022-09-03T18:08:56.219Z,98074.06
2022-09-03T18:11:51.493Z,98080.94
2022-09-03T18:14:53.103Z,98072.47
2022-09-03T18:17:52.703Z,98076.81
2022-09-03T18:21:26.577Z,98074.97
2022-09-03T18:24:51.145Z,98078.06
2022-09-03T18:28:05.283Z,98075.00
2022-09-03T18:31:12.046Z,98075.22
2022-09-03T18:34:22.262Z,98088.47
2022-09-03T18:37:29.477Z,98089.94
2022-09-03T18:40:45.581Z,98092.16
2022-09-03T18:44:06.308Z,98105.41
2022-09-03T18:51:07.441Z,98112.03
2022-09-03T18:54:56.964Z,98115.41
2022-09-03T18:58:22.150Z,98124.09
2022-09-03T19:01:40.403Z,98128.22
2022-09-03T19:05:08.641Z,98138.38
2022-09-03T19:08:28.085Z,98141.06
2022-09-03T19:11:52.326Z,98144.75
2022-09-03T19:15:15.031Z,98148.09
2022-09-03T19:18:41.867Z,98156.38
2022-09-03T19:21:59.879Z,98156.78
2022-09-03T19:25:15.083Z,98162.16
2022-09-03T19:28:33.656Z,98158.84
2022-09-03T19:32:00.560Z,98168.56
2022-09-03T19:35:30.715Z,98171.25
2022-09-03T19:38:50.230Z,98170.63
2022-09-03T19:42:09.225Z,98174.13
2022-09-03T19:45:26.824Z,98176.81
2022-09-03T19:48:51.129Z,98179.28
2022-09-03T19:52:09.764Z,98182.38
2022-09-03T19:55:18.766Z,98184.88
2022-09-03T19:58:42.441Z,98185.47
2022-09-03T20:01:53.485Z,98201.78
2022-09-03T20:05:10.508Z,98191.41
2022-09-03T20:08:18.668Z,98198.44
2022-09-03T20:11:13.085Z,98208.50
2022-09-03T20:14:17.698Z,98204.13
2022-09-03T20:17:22.884Z,98203.94
2022-09-03T20:20:24.929Z,98212.00
2022-09-03T20:23:22.840Z,98215.28
2022-09-03T20:26:35.106Z,98214.44
2022-09-03T20:29:49.056Z,98217.72
2022-09-03T20:33:12.548Z,98227.78
2022-09-03T20:36:18.221Z,98227.78
2022-09-03T20:39:30.456Z,98223.44
2022-09-03T20:42:51.853Z,98228.59
2022-09-03T20:46:02.302Z,98222.44
2022-09-03T20:49:04.493Z,98221.78
2022-09-03T20:52:07.412Z,98221.78
2022-09-03T20:55:05.844Z,98218.84
2022-09-03T20:58:07.106Z,98221.34
2022-09-03T21:01:06.412Z,98223.81
2022-09-03T21:04:15.681Z,98225.91
2022-09-03T21:07:18.005Z,98238.47
2022-09-03T21:10:17.965Z,98230.03
2022-09-03T21:13:21.163Z,98232.69
2022-09-03T21:16:34.457Z,98231.00
2022-09-03T21:19:46.235Z,98227.66
2022-09-03T21:22:52.624Z,98225.44
2022-09-03T21:25:49.884Z,98231.81
2022-09-03T21:28:42.907Z,98227.09
2022-09-03T21:31:41.787Z,98239.25
2022-09-03T21:34:39.325Z,98243.53
2022-09-03T21:37:29.012Z,98242.72
2022-09-03T21:40:24.270Z,98236.09
2022-09-03T21:43:20.327Z,98237.25
2022-09-03T21:46:16.204Z,98238.91
2022-09-03T21:49:11.044Z,98248.38
2022-09-03T21:52:05.628Z,98250.00
2022-09-03T21:54:55.177Z,98255.31
2022-09-03T21:58:03.542Z,98253.59
2022-09-03T22:00:59.891Z,98249.44
2022-09-03T22:03:49.129Z,98257.59
2022-09-03T22:06:54.659Z,98261.03
2022-09-03T22:09:53.609Z,98264.13
2022-09-03T22:12:57.020Z,98273.56
2022-09-03T22:15:51.316Z,98266.09
2022-09-03T22:18:41.262Z,98266.66
2022-09-03T22:21:40.078Z,98274.84
2022-09-03T22:24:43.626Z,98273.59
2022-09-03T22:27:44.668Z,98263.63
2022-09-03T22:30:47.024Z,98268.13
2022-09-03T22:33:48.030Z,98273.63
2022-09-03T22:36:44.682Z,98274.63
2022-09-03T22:39:39.300Z,98282.63
2022-09-03T22:42:53.610Z,98280.03
2022-09-03T22:46:08.097Z,98280.78
2022-09-03T22:49:22.074Z,98281.16
2022-09-03T22:52:29.204Z,98275.75
2022-09-03T22:55:25.396Z,98277.31
2022-09-03T22:58:22.256Z,98279.34
2022-09-03T23:01:20.785Z,98287.94
2022-09-03T23:04:20.884Z,98280.81
2022-09-03T23:07:23.399Z,98281.56
2022-09-03T23:10:24.389Z,98281.09
2022-09-03T23:13:22.071Z,98288.13
2022-09-03T23:16:30.388Z,98289.31
2022-09-03T23:19:30.503Z,98295.41
2022-09-03T23:22:25.782Z,98293.13
2022-09-03T23:25:21.138Z,98295.06
2022-09-03T23:28:24.125Z,98290.44
2022-09-03T23:31:20.209Z,98300.66
2022-09-03T23:34:11.979Z,98292.00
2022-09-03T23:37:42.015Z,98293.28
2022-09-03T23:40:48.673Z,98286.47
2022-09-03T23:44:05.175Z,98290.81
2022-09-03T23:47:12.172Z,98294.50
2022-09-03T23:50:17.814Z,98294.13
2022-09-03T23:53:24.445Z,98306.50
2022-09-03T23:56:46.789Z,98306.88
